Time;durP1;ratioP1;P1;durP2;ratioP2;P2;SDS_P1;SDS_P2;PMS_P1;PMS_P2;Temp;Humidity;BMP_temperature;BMP_pressure;BME280_temperature;BME280_humidity;BME280_pressure;Samples;Min_cycle;Max_cycle;Signal;HPM_P1;HPM_P2
2023/06/24 00:01:57;;;;;;;;;;;17.50;99.90;;;;;;5037926;28;19975;-47
2023/06/24 00:04:23;;;;;;;;;;;17.50;99.90;;;;;;5055512;28;19921;-47
2023/06/24 00:06:48;;;;;;;;;;;17.50;99.90;;;;;;5055330;28;19974;-48
2023/06/24 00:09:14;;;;;;;;;;;17.50;99.90;;;;;;5055571;28;19924;-48
2023/06/24 00:11:39;;;;;;;;;;;17.40;99.90;;;;;;5037659;28;20015;-50
2023/06/24 00:14:06;;;;;;;;;;;17.50;99.90;;;;;;5055413;28;20360;-48
2023/06/24 00:16:32;;;;;;;;;;;17.50;99.90;;;;;;5055358;28;19925;-49
2023/06/24 00:18:58;;;;;;;;;;;17.50;99.90;;;;;;5037951;28;19920;-48
2023/06/24 00:21:29;;;;;;;;;;;17.40;99.90;;;;;;5055088;28;19931;-48
2023/06/24 00:23:56;;;;;;;;;;;17.30;99.90;;;;;;5055609;28;19928;-48
2023/06/24 00:26:21;;;;;;;;;;;17.40;99.90;;;;;;5055212;28;19924;-48
2023/06/24 00:28:47;;;;;;;;;;;17.40;99.90;;;;;;5037691;28;19944;-48
2023/06/24 00:31:12;;;;;;;;;;;17.40;99.90;;;;;;5037405;28;19924;-48
2023/06/24 00:33:38;;;;;;;;;;;17.40;99.90;;;;;;5055124;28;19928;-48
2023/06/24 00:36:04;;;;;;;;;;;17.30;99.90;;;;;;5037169;28;19921;-48
2023/06/24 00:38:32;;;;;;;;;;;17.40;99.90;;;;;;5054852;28;19927;-48
2023/06/24 00:40:58;;;;;;;;;;;17.30;99.90;;;;;;5054848;28;19950;-48
2023/06/24 00:43:23;;;;;;;;;;;17.40;99.90;;;;;;5054858;28;20007;-49
2023/06/24 00:45:49;;;;;;;;;;;17.30;99.90;;;;;;5054787;28;19972;-48
2023/06/24 00:48:15;;;;;;;;;;;17.30;99.90;;;;;;5054585;28;19928;-50
2023/06/24 00:50:45;;;;;;;;;;;17.30;99.90;;;;;;5036926;28;20015;-48
2023/06/24 00:53:11;;;;;;;;;;;17.30;99.90;;;;;;5054884;28;19974;-48
2023/06/24 00:55:37;;;;;;;;;;;17.20;99.90;;;;;;5054532;28;19921;-48
2023/06/24 00:58:03;;;;;;;;;;;17.20;99.90;;;;;;5054196;28;19974;-48
2023/06/24 01:00:29;;;;;;;;;;;17.10;99.90;;;;;;5054513;28;19972;-48
2023/06/24 01:02:56;;;;;;;;;;;17.10;99.90;;;;;;5053123;28;20394;-48
2023/06/24 01:05:23;;;;;;;;;;;17.10;99.90;;;;;;5054197;28;19982;-48
2023/06/24 01:07:54;;;;;;;;;;;17.00;99.90;;;;;;5054452;28;19991;-49
2023/06/24 01:10:20;;;;;;;;;;;17.00;99.90;;;;;;5054471;28;19978;-47
2023/06/24 01:12:46;;;;;;;;;;;16.90;99.90;;;;;;5054300;28;20355;-47
2023/06/24 01:15:12;;;;;;;;;;;16.90;99.90;;;;;;5054130;28;19931;-48
2023/06/24 01:18:08;;;;;;;;;;;16.80;99.90;;;;;;5054239;28;20402;-48
2023/06/24 01:20:46;;;;;;;;;;;16.70;99.90;;;;;;5037678;28;19920;-48
2023/06/24 01:23:25;;;;;;;;;;;16.70;99.90;;;;;;5054150;28;19978;-48
2023/06/24 01:25:59;;;;;;;;;;;16.60;99.90;;;;;;5054199;28;19974;-47
2023/06/24 01:28:37;;;;;;;;;;;16.60;99.90;;;;;;5054729;28;19920;-48
2023/06/24 01:31:18;;;;;;;;;;;16.60;99.90;;;;;;5054508;28;19920;-48
2023/06/24 01:33:49;;;;;;;;;;;16.60;99.90;;;;;;5054302;28;19921;-51
2023/06/24 01:36:16;;;;;;;;;;;16.60;99.90;;;;;;5054066;28;20363;-48
2023/06/24 01:38:44;;;;;;;;;;;16.60;99.90;;;;;;5036267;28;19924;-48
2023/06/24 01:41:11;;;;;;;;;;;16.60;99.90;;;;;;5054067;28;19921;-47
2023/06/24 01:43:37;;;;;;;;;;;16.60;99.90;;;;;;5054025;28;19921;-47
2023/06/24 01:46:04;;;;;;;;;;;16.70;99.90;;;;;;5053990;28;20294;-48
2023/06/24 01:48:32;;;;;;;;;;;16.60;99.90;;;;;;5036654;28;19927;-48
2023/06/24 01:51:10;;;;;;;;;;;16.60;99.90;;;;;;5055238;28;20007;-48
2023/06/24 01:53:42;;;;;;;;;;;16.60;99.90;;;;;;5058158;28;19920;-47
2023/06/24 01:56:10;;;;;;;;;;;16.50;99.90;;;;;;5058085;28;19928;-48
2023/06/24 01:58:36;;;;;;;;;;;16.50;99.90;;;;;;5057834;28;19921;-47
2023/06/24 02:01:02;;;;;;;;;;;16.40;99.90;;;;;;5057930;28;20375;-47
2023/06/24 02:03:28;;;;;;;;;;;16.40;99.90;;;;;;5057944;28;19927;-48
2023/06/24 02:05:54;;;;;;;;;;;16.40;99.90;;;;;;5057851;28;19920;-48
2023/06/24 02:08:21;;;;;;;;;;;16.40;99.90;;;;;;5040325;28;19920;-48
2023/06/24 02:10:48;;;;;;;;;;;16.40;99.90;;;;;;5057705;28;20022;-47
2023/06/24 02:13:15;;;;;;;;;;;16.40;99.90;;;;;;5057701;28;20449;-47
2023/06/24 02:15:41;;;;;;;;;;;16.40;99.90;;;;;;5057795;28;19921;-48
2023/06/24 02:18:09;;;;;;;;;;;16.40;99.90;;;;;;5023477;28;20261;-48
2023/06/24 02:20:35;;;;;;;;;;;16.40;99.90;;;;;;5057980;28;19974;-47
2023/06/24 02:23:01;;;;;;;;;;;16.40;99.90;;;;;;5057567;28;19924;-48
2023/06/24 02:25:27;;;;;;;;;;;16.30;99.90;;;;;;5057477;28;19920;-47
2023/06/24 02:27:54;;;;;;;;;;;16.30;99.90;;;;;;5057531;28;19928;-48
2023/06/24 02:30:21;;;;;;;;;;;16.30;99.90;;;;;;5057354;28;20395;-48
2023/06/24 02:32:46;;;;;;;;;;;16.30;99.90;;;;;;5057047;28;19921;-48
2023/06/24 02:35:12;;;;;;;;;;;16.30;99.90;;;;;;5057350;28;20264;-47
2023/06/24 02:37:38;;;;;;;;;;;16.30;99.90;;;;;;5040265;28;19970;-47
2023/06/24 02:40:05;;;;;;;;;;;16.30;99.90;;;;;;5057223;28;20362;-47
2023/06/24 02:42:31;;;;;;;;;;;16.30;99.90;;;;;;5057139;28;19920;-47
2023/06/24 02:44:56;;;;;;;;;;;16.30;99.90;;;;;;5039513;28;20003;-47
2023/06/24 02:47:22;;;;;;;;;;;16.30;99.90;;;;;;5056802;28;20367;-48
2023/06/24 02:49:48;;;;;;;;;;;16.30;99.90;;;;;;5057073;28;19925;-48
2023/06/24 02:52:15;;;;;;;;;;;16.20;99.90;;;;;;5056875;28;19921;-47
2023/06/24 02:54:41;;;;;;;;;;;16.20;99.90;;;;;;5056955;28;19921;-47
2023/06/24 02:57:08;;;;;;;;;;;16.20;99.90;;;;;;5056744;28;19921;-47
2023/06/24 02:59:33;;;;;;;;;;;16.20;99.90;;;;;;5056752;28;19927;-48
2023/06/24 03:02:00;;;;;;;;;;;16.20;99.90;;;;;;5056590;28;19920;-48
2023/06/24 03:04:26;;;;;;;;;;;16.20;99.90;;;;;;5056807;28;19925;-47
2023/06/24 03:06:52;;;;;;;;;;;16.20;99.90;;;;;;5056656;28;19932;-47
2023/06/24 03:09:18;;;;;;;;;;;16.20;99.90;;;;;;5056670;28;19928;-47
2023/06/24 03:11:44;;;;;;;;;;;16.20;99.90;;;;;;5056624;28;19921;-47
2023/06/24 03:14:10;;;;;;;;;;;16.20;99.90;;;;;;5056505;28;19927;-47
2023/06/24 03:16:36;;;;;;;;;;;16.20;99.90;;;;;;5056307;28;20298;-47
2023/06/24 03:19:02;;;;;;;;;;;16.20;99.90;;;;;;5056533;28;20007;-47
2023/06/24 03:21:28;;;;;;;;;;;16.10;99.90;;;;;;5056452;28;20370;-47
2023/06/24 03:23:54;;;;;;;;;;;16.10;99.90;;;;;;5056331;28;19921;-48
2023/06/24 03:26:20;;;;;;;;;;;16.10;99.90;;;;;;5056402;28;19928;-47
2023/06/24 03:28:45;;;;;;;;;;;16.00;99.90;;;;;;5056406;28;19920;-48
2023/06/24 03:31:11;;;;;;;;;;;16.00;99.90;;;;;;5056082;28;20371;-48
2023/06/24 03:33:36;;;;;;;;;;;15.90;99.90;;;;;;5056316;28;19932;-47
2023/06/24 03:36:02;;;;;;;;;;;15.90;99.90;;;;;;5056203;28;20343;-47
2023/06/24 03:38:28;;;;;;;;;;;15.80;99.90;;;;;;5038713;28;19927;-47
2023/06/24 03:40:54;;;;;;;;;;;15.80;99.90;;;;;;5056149;28;19924;-47
2023/06/24 03:43:19;;;;;;;;;;;15.80;99.90;;;;;;5055916;28;20283;-47
2023/06/24 03:45:45;;;;;;;;;;;15.90;99.90;;;;;;5055760;28;20318;-47
2023/06/24 03:48:11;;;;;;;;;;;15.80;99.90;;;;;;5055982;28;19920;-47
2023/06/24 03:50:36;;;;;;;;;;;15.80;99.90;;;;;;5055929;28;19928;-47
2023/06/24 03:53:02;;;;;;;;;;;15.90;99.90;;;;;;5055948;28;19974;-47
2023/06/24 03:55:28;;;;;;;;;;;15.90;99.90;;;;;;5055820;28;19921;-47
2023/06/24 03:57:53;;;;;;;;;;;15.90;99.90;;;;;;5037766;28;19928;-48
2023/06/24 04:00:20;;;;;;;;;;;15.90;99.90;;;;;;5055556;28;19927;-47
2023/06/24 04:02:46;;;;;;;;;;;15.90;99.90;;;;;;5055847;28;20397;-47
2023/06/24 04:05:12;;;;;;;;;;;15.90;99.90;;;;;;5055751;28;19921;-48
2023/06/24 04:07:39;;;;;;;;;;;15.90;99.90;;;;;;5055616;28;20281;-47
2023/06/24 04:10:08;;;;;;;;;;;15.90;99.90;;;;;;5055660;28;19942;-47
2023/06/24 04:12:36;;;;;;;;;;;15.90;99.90;;;;;;5055626;28;19921;-48
2023/06/24 04:15:03;;;;;;;;;;;15.90;99.90;;;;;;5054662;28;20398;-47
2023/06/24 04:17:29;;;;;;;;;;;15.90;99.90;;;;;;5055662;28;19928;-47
2023/06/24 04:19:54;;;;;;;;;;;15.90;99.90;;;;;;5055403;28;20275;-48
2023/06/24 04:22:20;;;;;;;;;;;16.00;99.90;;;;;;5055244;28;19928;-48
2023/06/24 04:24:45;;;;;;;;;;;16.00;99.90;;;;;;5021243;28;20015;-49
2023/06/24 04:27:11;;;;;;;;;;;16.00;99.90;;;;;;5055232;28;19925;-47
2023/06/24 04:29:36;;;;;;;;;;;16.00;99.90;;;;;;5055152;28;19928;-47
2023/06/24 04:32:02;;;;;;;;;;;16.00;99.90;;;;;;5037265;28;19921;-48
2023/06/24 04:34:28;;;;;;;;;;;16.10;99.90;;;;;;5055114;28;19927;-48
2023/06/24 04:36:53;;;;;;;;;;;16.10;99.90;;;;;;5054932;28;19921;-47
2023/06/24 04:39:19;;;;;;;;;;;16.20;99.90;;;;;;5055047;28;19924;-47
2023/06/24 04:41:46;;;;;;;;;;;16.30;99.90;;;;;;5037114;28;20434;-47
2023/06/24 04:44:11;;;;;;;;;;;16.30;99.90;;;;;;5054698;28;19998;-47
2023/06/24 04:46:37;;;;;;;;;;;16.40;99.90;;;;;;5037232;28;19925;-48
2023/06/24 04:49:02;;;;;;;;;;;16.50;99.90;;;;;;5037020;28;20267;-47
2023/06/24 04:51:28;;;;;;;;;;;16.60;99.90;;;;;;5054669;28;20272;-47
2023/06/24 04:53:55;;;;;;;;;;;16.60;99.90;;;;;;5054572;28;19925;-47
2023/06/24 04:56:20;;;;;;;;;;;16.70;99.90;;;;;;5054684;28;20430;-47
2023/06/24 04:58:46;;;;;;;;;;;16.80;99.90;;;;;;5054686;28;19921;-47
2023/06/24 05:01:11;;;;;;;;;;;16.90;99.90;;;;;;5037012;28;20283;-47
2023/06/24 05:03:37;;;;;;;;;;;16.90;99.90;;;;;;5037087;28;20283;-46
2023/06/24 05:06:02;;;;;;;;;;;16.90;99.90;;;;;;5054514;28;19921;-47
2023/06/24 05:08:28;;;;;;;;;;;17.00;99.90;;;;;;5054758;28;19924;-47
2023/06/24 05:10:54;;;;;;;;;;;17.00;99.90;;;;;;5054381;28;19921;-47
2023/06/24 05:13:19;;;;;;;;;;;17.10;99.90;;;;;;5054198;28;19920;-47
2023/06/24 05:15:45;;;;;;;;;;;17.30;99.90;;;;;;5054133;28;19921;-46
2023/06/24 05:18:10;;;;;;;;;;;17.50;99.90;;;;;;5054363;28;19920;-47
2023/06/24 05:20:36;;;;;;;;;;;17.80;99.90;;;;;;5054226;28;19921;-47
2023/06/24 05:23:01;;;;;;;;;;;18.40;99.90;;;;;;5054144;28;19928;-47
2023/06/24 05:25:27;;;;;;;;;;;18.80;99.90;;;;;;5053408;28;19927;-47
2023/06/24 05:27:52;;;;;;;;;;;18.80;99.90;;;;;;5053939;28;19967;-47
2023/06/24 05:30:18;;;;;;;;;;;18.70;99.90;;;;;;5053966;28;19921;-47
2023/06/24 05:32:43;;;;;;;;;;;18.70;99.90;;;;;;5054009;28;20322;-47
2023/06/24 05:35:09;;;;;;;;;;;18.60;99.90;;;;;;5036304;28;19928;-47
2023/06/24 05:37:34;;;;;;;;;;;18.70;99.90;;;;;;5054289;28;19967;-47
2023/06/24 05:40:01;;;;;;;;;;;18.70;99.90;;;;;;5054068;28;19925;-47
2023/06/24 05:42:27;;;;;;;;;;;18.70;99.90;;;;;;5053927;28;19920;-47
2023/06/24 05:44:52;;;;;;;;;;;18.70;99.90;;;;;;5053990;28;19931;-47
2023/06/24 05:47:18;;;;;;;;;;;18.80;99.90;;;;;;5053991;28;20067;-47
2023/06/24 05:49:44;;;;;;;;;;;18.80;99.90;;;;;;5053941;28;19920;-47
2023/06/24 05:52:09;;;;;;;;;;;18.80;99.90;;;;;;5036050;28;19928;-47
2023/06/24 05:54:35;;;;;;;;;;;18.80;99.90;;;;;;5053849;28;19943;-49
2023/06/24 05:57:00;;;;;;;;;;;18.80;99.90;;;;;;5053699;28;19921;-46
2023/06/24 05:59:26;;;;;;;;;;;18.80;99.90;;;;;;5053539;28;19928;-47
2023/06/24 06:01:51;;;;;;;;;;;18.90;99.90;;;;;;5053845;28;19925;-47
2023/06/24 06:04:17;;;;;;;;;;;18.90;99.90;;;;;;5054035;28;19920;-47
2023/06/24 06:06:42;;;;;;;;;;;18.90;99.90;;;;;;5036060;28;19921;-47
2023/06/24 06:09:08;;;;;;;;;;;18.90;99.90;;;;;;5053722;28;19921;-47
2023/06/24 06:11:33;;;;;;;;;;;19.00;99.90;;;;;;5053445;28;19973;-47
2023/06/24 06:13:59;;;;;;;;;;;19.00;99.90;;;;;;5053568;28;19966;-47
2023/06/24 06:16:25;;;;;;;;;;;19.10;99.90;;;;;;5053666;28;19971;-47
2023/06/24 06:18:51;;;;;;;;;;;19.10;99.90;;;;;;5019668;28;20268;-47
2023/06/24 06:21:16;;;;;;;;;;;19.20;99.90;;;;;;5035888;28;19920;-47
2023/06/24 06:23:42;;;;;;;;;;;19.30;99.90;;;;;;5035622;28;20286;-47
2023/06/24 06:26:07;;;;;;;;;;;19.30;99.90;;;;;;5036253;28;19998;-47
2023/06/24 06:28:33;;;;;;;;;;;19.40;99.90;;;;;;5053257;28;19921;-48
2023/06/24 06:30:58;;;;;;;;;;;19.40;99.90;;;;;;5053477;28;19927;-48
2023/06/24 06:33:24;;;;;;;;;;;19.40;99.90;;;;;;5035873;28;19931;-47
2023/06/24 06:35:50;;;;;;;;;;;19.40;99.90;;;;;;5053229;28;19925;-47
2023/06/24 06:38:15;;;;;;;;;;;19.40;99.90;;;;;;5056963;28;19928;-47
2023/06/24 06:40:41;;;;;;;;;;;19.40;99.90;;;;;;5057123;28;19924;-47
2023/06/24 06:43:06;;;;;;;;;;;19.50;99.90;;;;;;5039086;28;20434;-47
2023/06/24 06:45:32;;;;;;;;;;;19.50;99.90;;;;;;5057178;28;19943;-47
2023/06/24 06:47:57;;;;;;;;;;;19.50;99.90;;;;;;5057184;28;19920;-47
2023/06/24 06:50:23;;;;;;;;;;;19.60;99.90;;;;;;5057374;28;19921;-48
2023/06/24 06:52:48;;;;;;;;;;;19.60;99.90;;;;;;5056876;28;20382;-47
2023/06/24 06:55:14;;;;;;;;;;;19.60;99.90;;;;;;5039373;28;19943;-47
2023/06/24 06:57:39;;;;;;;;;;;19.70;99.90;;;;;;5056787;28;19964;-47
2023/06/24 07:00:05;;;;;;;;;;;19.70;99.90;;;;;;5057479;28;19928;-47
2023/06/24 07:02:31;;;;;;;;;;;19.80;99.90;;;;;;5056884;28;19929;-48
2023/06/24 07:04:57;;;;;;;;;;;19.80;99.90;;;;;;5056759;28;20015;-48
2023/06/24 07:07:22;;;;;;;;;;;19.90;99.90;;;;;;5056753;28;20326;-47
2023/06/24 07:09:48;;;;;;;;;;;19.90;99.90;;;;;;5056674;28;19928;-47
2023/06/24 07:12:13;;;;;;;;;;;19.90;99.90;;;;;;5056381;28;20011;-49
2023/06/24 07:14:39;;;;;;;;;;;20.00;99.90;;;;;;5057097;28;19920;-47
2023/06/24 07:17:05;;;;;;;;;;;20.00;99.90;;;;;;5057127;28;19924;-48
2023/06/24 07:19:30;;;;;;;;;;;20.10;99.90;;;;;;5056627;28;19920;-47
2023/06/24 07:21:56;;;;;;;;;;;20.10;99.90;;;;;;5056777;28;19924;-47
2023/06/24 07:24:21;;;;;;;;;;;20.20;99.90;;;;;;5056299;28;20019;-47
2023/06/24 07:26:47;;;;;;;;;;;20.20;99.90;;;;;;5021876;28;19999;-47
2023/06/24 07:29:13;;;;;;;;;;;20.30;99.90;;;;;;5056145;28;19943;-47
2023/06/24 07:31:38;;;;;;;;;;;20.40;99.90;;;;;;5056277;28;19921;-47
2023/06/24 07:34:04;;;;;;;;;;;20.50;99.90;;;;;;5056414;28;20027;-47
2023/06/24 07:36:30;;;;;;;;;;;20.60;99.90;;;;;;5056175;28;19921;-47
2023/06/24 07:38:55;;;;;;;;;;;20.60;99.90;;;;;;5056271;28;20016;-48
2023/06/24 07:41:21;;;;;;;;;;;20.70;99.90;;;;;;5055939;28;20268;-48
2023/06/24 07:43:46;;;;;;;;;;;20.70;99.90;;;;;;5055900;28;19928;-47
2023/06/24 07:46:12;;;;;;;;;;;20.80;99.90;;;;;;5056029;28;19921;-47
2023/06/24 07:48:38;;;;;;;;;;;20.90;99.90;;;;;;5054938;28;19921;-47
2023/06/24 07:51:03;;;;;;;;;;;21.00;99.90;;;;;;5055833;28;19988;-47
2023/06/24 07:53:29;;;;;;;;;;;21.00;99.90;;;;;;5055746;28;19921;-47
2023/06/24 07:55:54;;;;;;;;;;;21.10;99.90;;;;;;5055834;28;19927;-47
2023/06/24 07:58:20;;;;;;;;;;;21.10;99.90;;;;;;5055772;28;20447;-47
2023/06/24 08:00:45;;;;;;;;;;;21.20;99.90;;;;;;5055776;28;19974;-47
2023/06/24 08:03:12;;;;;;;;;;;21.20;99.90;;;;;;5055607;28;20363;-47
2023/06/24 08:05:38;;;;;;;;;;;21.30;99.90;;;;;;5055578;28;19927;-47
2023/06/24 08:08:04;;;;;;;;;;;21.40;99.90;;;;;;5055442;28;20414;-48
2023/06/24 08:10:30;;;;;;;;;;;21.40;99.90;;;;;;5055507;28;19920;-47
2023/06/24 08:12:55;;;;;;;;;;;21.50;99.90;;;;;;5037503;28;19967;-47
2023/06/24 08:15:21;;;;;;;;;;;21.60;99.90;;;;;;5055137;28;19987;-48
2023/06/24 08:17:53;;;;;;;;;;;21.70;99.90;;;;;;5055207;28;19954;-48
2023/06/24 08:20:19;;;;;;;;;;;21.70;99.90;;;;;;5055298;28;19924;-48
2023/06/24 08:22:45;;;;;;;;;;;21.70;99.90;;;;;;5055188;28;19921;-50
2023/06/24 08:25:11;;;;;;;;;;;21.80;99.90;;;;;;5037385;28;20303;-48
2023/06/24 08:27:37;;;;;;;;;;;21.80;99.90;;;;;;5054993;28;20021;-48
2023/06/24 08:30:04;;;;;;;;;;;21.80;99.90;;;;;;5055140;28;19921;-51
2023/06/24 08:32:29;;;;;;;;;;;21.90;99.90;;;;;;5054993;28;19990;-48
2023/06/24 08:34:55;;;;;;;;;;;21.90;99.90;;;;;;5055058;28;19982;-47
2023/06/24 08:37:20;;;;;;;;;;;22.00;99.90;;;;;;5054984;28;19943;-47
2023/06/24 08:39:46;;;;;;;;;;;22.00;99.90;;;;;;5054722;28;20354;-49
2023/06/24 08:42:11;;;;;;;;;;;22.00;99.90;;;;;;5054634;28;19924;-49
2023/06/24 08:44:37;;;;;;;;;;;22.10;99.90;;;;;;5055043;28;19921;-48
2023/06/24 08:47:03;;;;;;;;;;;22.10;99.90;;;;;;5054616;28;19975;-48
2023/06/24 08:49:29;;;;;;;;;;;22.10;99.90;;;;;;5054526;28;19921;-49
2023/06/24 08:52:15;;;;;;;;;;;22.10;99.90;;;;;;5054495;28;19921;-48
2023/06/24 08:54:41;;;;;;;;;;;22.20;99.90;;;;;;5037208;28;20075;-49
2023/06/24 08:57:08;;;;;;;;;;;22.30;99.90;;;;;;5054690;28;19975;-48
2023/06/24 08:59:34;;;;;;;;;;;22.40;99.90;;;;;;5036622;28;20371;-48
2023/06/24 09:02:00;;;;;;;;;;;22.50;99.90;;;;;;5054592;28;19973;-47
2023/06/24 09:04:26;;;;;;;;;;;22.60;99.90;;;;;;5054506;28;19921;-49
2023/06/24 09:06:52;;;;;;;;;;;22.70;99.90;;;;;;5054473;28;19925;-49
2023/06/24 09:09:21;;;;;;;;;;;22.80;99.90;;;;;;5054801;28;20387;-47
2023/06/24 09:11:57;;;;;;;;;;;22.80;99.90;;;;;;5054513;28;19928;-47
2023/06/24 09:14:27;;;;;;;;;;;22.90;99.90;;;;;;5054195;28;19943;-47
2023/06/24 09:16:53;;;;;;;;;;;22.90;99.90;;;;;;5054237;28;19921;-48
2023/06/24 09:19:22;;;;;;;;;;;22.90;99.90;;;;;;5054145;28;19921;-48
2023/06/24 09:21:48;;;;;;;;;;;22.90;99.90;;;;;;5054208;28;19931;-48
2023/06/24 09:24:13;;;;;;;;;;;23.00;99.90;;;;;;5054350;28;19964;-48
2023/06/24 09:26:41;;;;;;;;;;;23.10;99.90;;;;;;5054214;28;20363;-48
2023/06/24 09:29:08;;;;;;;;;;;23.10;99.90;;;;;;5036596;28;19927;-47
2023/06/24 09:31:34;;;;;;;;;;;23.20;99.90;;;;;;5053886;28;19928;-48
2023/06/24 09:33:59;;;;;;;;;;;23.20;99.90;;;;;;5053958;28;19921;-49
2023/06/24 09:36:25;;;;;;;;;;;23.30;99.90;;;;;;5036272;28;19931;-47
2023/06/24 09:38:50;;;;;;;;;;;23.40;99.90;;;;;;5054446;28;20364;-48
2023/06/24 09:41:16;;;;;;;;;;;23.50;99.90;;;;;;5054081;28;20008;-49
2023/06/24 09:43:44;;;;;;;;;;;23.50;99.90;;;;;;5053947;28;20379;-48
2023/06/24 09:46:10;;;;;;;;;;;23.50;99.90;;;;;;5036429;28;20279;-49
2023/06/24 09:48:35;;;;;;;;;;;23.50;99.90;;;;;;5036410;28;19920;-48
2023/06/24 09:51:02;;;;;;;;;;;23.60;99.90;;;;;;5054183;28;20285;-47
2023/06/24 09:53:30;;;;;;;;;;;23.50;99.90;;;;;;5054066;28;19927;-49
2023/06/24 09:55:56;;;;;;;;;;;23.50;99.90;;;;;;5053818;28;19921;-47
2023/06/24 09:58:23;;;;;;;;;;;23.50;99.90;;;;;;5035886;28;19925;-49
2023/06/24 10:00:49;;;;;;;;;;;23.50;99.90;;;;;;5053546;28;20411;-48
2023/06/24 10:03:15;;;;;;;;;;;23.50;99.90;;;;;;5053527;28;19920;-47
2023/06/24 10:05:41;;;;;;;;;;;23.50;99.90;;;;;;5053607;28;19927;-47
2023/06/24 10:08:06;;;;;;;;;;;23.60;99.90;;;;;;5036169;28;20446;-47
2023/06/24 10:10:33;;;;;;;;;;;23.70;99.90;;;;;;5036072;28;20008;-48
2023/06/24 10:12:58;;;;;;;;;;;23.70;99.90;;;;;;5056708;28;20007;-49
2023/06/24 10:15:24;;;;;;;;;;;23.80;99.90;;;;;;5057544;28;19925;-48
2023/06/24 10:17:50;;;;;;;;;;;23.90;99.90;;;;;;5039882;28;19920;-48
2023/06/24 10:20:24;;;;;;;;;;;24.00;99.90;;;;;;5057375;28;19925;-47
2023/06/24 10:22:50;;;;;;;;;;;24.10;99.90;;;;;;5040246;28;19921;-48
2023/06/24 10:25:16;;;;;;;;;;;24.20;99.90;;;;;;5057446;28;19920;-47
2023/06/24 10:27:42;;;;;;;;;;;24.30;99.90;;;;;;5057530;28;20032;-56
2023/06/24 10:30:08;;;;;;;;;;;24.40;99.90;;;;;;5039631;28;19928;-47
2023/06/24 10:32:42;;;;;;;;;;;24.50;99.90;;;;;;5057154;28;20283;-49
2023/06/24 10:35:20;;;;;;;;;;;24.60;99.90;;;;;;5057358;28;19921;-49
2023/06/24 10:37:53;;;;;;;;;;;24.80;99.90;;;;;;5057600;28;19921;-48
2023/06/24 10:40:33;;;;;;;;;;;24.90;99.90;;;;;;5039734;28;19927;-48
2023/06/24 10:42:59;;;;;;;;;;;25.00;99.90;;;;;;5057221;28;19921;-48
2023/06/24 10:45:24;;;;;;;;;;;25.10;99.90;;;;;;5057150;28;20369;-51
2023/06/24 10:47:56;;;;;;;;;;;25.20;99.90;;;;;;5057188;28;19920;-48
2023/06/24 10:50:23;;;;;;;;;;;25.30;99.90;;;;;;5040008;28;19932;-48
2023/06/24 10:52:54;;;;;;;;;;;25.20;99.90;;;;;;5039081;28;19920;-48
2023/06/24 10:55:21;;;;;;;;;;;25.20;99.90;;;;;;5056840;28;20441;-49
2023/06/24 10:57:47;;;;;;;;;;;25.00;99.90;;;;;;5057281;28;19920;-53
2023/06/24 11:00:13;;;;;;;;;;;24.90;99.90;;;;;;5056939;28;19966;-48
2023/06/24 11:02:39;;;;;;;;;;;24.90;99.90;;;;;;5056859;28;19972;-48
2023/06/24 11:05:05;;;;;;;;;;;25.00;99.90;;;;;;5056507;28;19928;-48
2023/06/24 11:07:31;;;;;;;;;;;25.10;99.90;;;;;;5056627;28;19920;-48
2023/06/24 11:10:23;;;;;;;;;;;25.40;99.90;;;;;;5056584;28;19920;-48
2023/06/24 11:12:49;;;;;;;;;;;25.60;99.90;;;;;;5052599;28;19925;-48
2023/06/24 11:15:14;;;;;;;;;;;26.00;99.90;;;;;;5056906;28;20286;-49
2023/06/24 11:17:40;;;;;;;;;;;26.10;99.90;;;;;;5056493;28;19921;-47
2023/06/24 11:20:10;;;;;;;;;;;26.40;99.90;;;;;;5038725;28;20374;-55
2023/06/24 11:22:36;;;;;;;;;;;26.60;99.90;;;;;;5055690;28;20021;-48
2023/06/24 11:25:02;;;;;;;;;;;26.80;99.90;;;;;;5055766;28;19924;-48
2023/06/24 11:27:28;;;;;;;;;;;27.00;99.90;;;;;;5056385;28;19946;-48
2023/06/24 11:29:55;;;;;;;;;;;27.10;99.90;;;;;;5056390;28;20287;-48
2023/06/24 11:32:21;;;;;;;;;;;27.10;99.90;;;;;;5056200;28;19927;-49
2023/06/24 11:34:46;;;;;;;;;;;27.20;99.90;;;;;;5056111;28;19921;-48
2023/06/24 11:37:12;;;;;;;;;;;27.20;99.90;;;;;;5055980;28;19928;-48
2023/06/24 11:39:38;;;;;;;;;;;27.10;99.90;;;;;;5056191;28;20367;-48
2023/06/24 11:42:05;;;;;;;;;;;27.00;99.90;;;;;;5038384;28;19927;-48
2023/06/24 11:44:31;;;;;;;;;;;26.80;99.90;;;;;;5056037;28;19968;-48
2023/06/24 11:47:03;;;;;;;;;;;26.70;99.90;;;;;;5056020;28;19928;-48
2023/06/24 11:49:29;;;;;;;;;;;26.70;99.90;;;;;;5055985;28;20015;-49
2023/06/24 11:51:54;;;;;;;;;;;26.60;99.90;;;;;;5037917;28;20019;-48
2023/06/24 11:54:20;;;;;;;;;;;26.40;99.90;;;;;;5055876;28;19921;-53
2023/06/24 11:56:52;;;;;;;;;;;26.30;99.90;;;;;;5055766;28;19975;-48
2023/06/24 11:59:26;;;;;;;;;;;26.10;99.90;;;;;;5055746;28;19921;-48
2023/06/24 12:01:53;;;;;;;;;;;26.00;99.90;;;;;;5055792;28;20280;-50
2023/06/24 12:04:18;;;;;;;;;;;25.90;99.90;;;;;;5055671;28;19921;-49
2023/06/24 12:06:44;;;;;;;;;;;26.00;99.90;;;;;;5055715;28;20291;-49
2023/06/24 12:09:10;;;;;;;;;;;26.10;99.90;;;;;;5055365;28;19920;-49
2023/06/24 12:11:36;;;;;;;;;;;26.10;99.90;;;;;;5055578;28;19921;-48
2023/06/24 12:14:01;;;;;;;;;;;26.20;99.90;;;;;;5055459;28;20435;-50
2023/06/24 12:16:27;;;;;;;;;;;26.30;99.90;;;;;;5055399;28;20022;-49
2023/06/24 12:18:53;;;;;;;;;;;26.50;99.90;;;;;;5055323;28;19921;-54
2023/06/24 12:21:19;;;;;;;;;;;26.70;99.90;;;;;;5055389;28;19920;-49
2023/06/24 12:23:44;;;;;;;;;;;27.00;99.90;;;;;;5055320;28;20447;-49
2023/06/24 12:26:10;;;;;;;;;;;27.20;99.70;;;;;;5055024;28;20015;-48
2023/06/24 12:28:36;;;;;;;;;;;27.20;98.30;;;;;;5037332;28;19921;-49
2023/06/24 12:31:02;;;;;;;;;;;27.10;98.30;;;;;;5055036;28;20371;-50
2023/06/24 12:33:28;;;;;;;;;;;27.00;99.30;;;;;;5054926;28;19974;-48
2023/06/24 12:35:53;;;;;;;;;;;26.80;98.70;;;;;;5054814;28;19924;-48
2023/06/24 12:38:19;;;;;;;;;;;26.70;98.10;;;;;;5055071;28;19920;-47
2023/06/24 12:40:45;;;;;;;;;;;26.60;97.80;;;;;;5055053;28;20328;-49
2023/06/24 12:43:10;;;;;;;;;;;26.40;98.00;;;;;;5054988;28;19928;-52
2023/06/24 12:45:37;;;;;;;;;;;26.30;97.80;;;;;;5054731;28;19921;-49
2023/06/24 12:48:02;;;;;;;;;;;26.30;98.90;;;;;;5037267;28;19920;-49
2023/06/24 12:50:28;;;;;;;;;;;26.30;99.20;;;;;;5054707;28;20382;-53
2023/06/24 12:52:53;;;;;;;;;;;26.20;98.70;;;;;;5054702;28;19929;-49
2023/06/24 12:55:19;;;;;;;;;;;26.20;99.50;;;;;;5054548;28;19924;-49
2023/06/24 12:57:45;;;;;;;;;;;26.20;99.30;;;;;;5054266;28;19935;-47
2023/06/24 13:00:10;;;;;;;;;;;26.10;98.30;;;;;;5054651;28;19988;-49
2023/06/24 13:02:38;;;;;;;;;;;26.10;97.40;;;;;;5054357;28;20379;-53
2023/06/24 13:05:04;;;;;;;;;;;26.00;97.80;;;;;;5054236;28;20363;-52
2023/06/24 13:07:29;;;;;;;;;;;26.00;97.90;;;;;;5037126;28;19947;-50
2023/06/24 13:09:55;;;;;;;;;;;25.90;98.80;;;;;;5054411;28;19921;-53
2023/06/24 13:12:21;;;;;;;;;;;26.00;99.90;;;;;;5054309;28;20423;-54
2023/06/24 13:14:47;;;;;;;;;;;26.00;99.90;;;;;;5054097;28;19921;-53
2023/06/24 13:17:13;;;;;;;;;;;26.10;99.90;;;;;;5054283;28;19927;-53
2023/06/24 13:19:39;;;;;;;;;;;26.00;99.90;;;;;;5054157;28;19960;-54
2023/06/24 13:22:04;;;;;;;;;;;25.80;99.90;;;;;;5054309;28;20330;-53
2023/06/24 13:24:30;;;;;;;;;;;25.70;99.90;;;;;;5054207;28;19995;-53
2023/06/24 13:26:55;;;;;;;;;;;25.50;99.90;;;;;;5054094;28;19947;-48
2023/06/24 13:29:21;;;;;;;;;;;25.40;99.90;;;;;;5054117;28;19939;-51
2023/06/24 13:31:47;;;;;;;;;;;25.30;99.90;;;;;;5053889;28;19921;-51
2023/06/24 13:34:12;;;;;;;;;;;25.20;99.90;;;;;;5053960;28;19931;-51
2023/06/24 13:36:38;;;;;;;;;;;25.10;99.90;;;;;;5020105;28;19990;-54
2023/06/24 13:39:08;;;;;;;;;;;25.10;99.90;;;;;;5054235;28;19974;-49
2023/06/24 13:41:34;;;;;;;;;;;25.00;99.90;;;;;;5054103;28;19920;-51
2023/06/24 13:44:01;;;;;;;;;;;25.00;99.90;;;;;;5053990;28;20015;-50
2023/06/24 13:46:27;;;;;;;;;;;25.00;99.90;;;;;;5053129;28;19973;-49
2023/06/24 13:48:52;;;;;;;;;;;24.90;99.90;;;;;;5053713;28;19983;-53
2023/06/24 13:51:19;;;;;;;;;;;24.90;99.90;;;;;;5053746;28;19924;-49
2023/06/24 13:53:45;;;;;;;;;;;24.80;99.90;;;;;;5053956;28;19961;-49
2023/06/24 13:56:10;;;;;;;;;;;24.80;99.90;;;;;;5053875;28;19921;-48
2023/06/24 13:58:36;;;;;;;;;;;24.80;99.90;;;;;;5053433;28;20257;-50
2023/06/24 14:01:02;;;;;;;;;;;24.80;99.90;;;;;;5053616;28;19925;-49
2023/06/24 14:03:28;;;;;;;;;;;24.80;99.90;;;;;;5053747;28;19920;-48
2023/06/24 14:05:54;;;;;;;;;;;24.80;99.90;;;;;;5053740;28;20386;-49
2023/06/24 14:08:19;;;;;;;;;;;25.00;99.90;;;;;;5053794;28;19921;-56
2023/06/24 14:10:45;;;;;;;;;;;25.10;99.90;;;;;;5053942;28;19963;-50
2023/06/24 14:13:10;;;;;;;;;;;25.20;99.90;;;;;;5053884;28;19927;-49